3b Victory — 9HA3827 — position and weather

sailwx.info

Track history (hours):
 
Tides and Currents Weather Stations Pressure Air Temp Water Temp Dewpoint Dewpoint Depression Visibility Wind Speed Wind Dir Waves Ship Positions

3b Victory

Last reported at 2018-Feb-08 01:20 UTC. Time now 2018-Feb-24 02:22 UTC.
Position N 34°06' E 029°40'.
Warning: this ship's position is 16 days out of date.

Length 106 m; draft 5.2 m.

Type: Tanker. MMSI: 256120000.

Date/timePositionNaut miles runAvg speedWind from/ knotsBaromVisibWave heightAir tempDewpointWater temp
2018-Feb-08 01:20N 34°06' E 029°40'2 7.1
2018-Feb-08 01:00N 34°06' E 029°43'20 6.7
2018-Feb-07 22:01N 34°03' E 030°07'0 7.6
2018-Feb-07 22:00N 34°03' E 030°07'4 7.7
2018-Feb-07 21:31N 34°03' E 030°12'114 6.8
2018-Feb-07 04:46N 33°50' E 032°28'2 9.6
2018-Feb-07 04:30N 33°50' E 032°31'15 9.4
2018-Feb-07 02:56N 33°48' E 032°49'5 9.3
2018-Feb-07 02:25N 33°47' E 032°54'4 9.3
2018-Feb-07 02:00N 33°47' E 032°59'5 9.4
2018-Feb-07 01:30N 33°46' E 033°05'5 9.4
2018-Feb-07 01:00N 33°46' E 033°10'611.1
2018-Feb-07 00:30N 33°45' E 033°17'511.0
2018-Feb-07 00:00N 33°44' E 033°23'810.8
2018-Feb-06 23:16N 33°43' E 033°33'2 7.7
2018-Feb-06 23:00N 33°43' E 033°35'510.1
2018-Feb-06 22:29N 33°42' E 033°42'510.8
2018-Feb-06 22:00N 33°42' E 033°48'611.0
2018-Feb-06 21:29N 33°41' E 033°55'710.5
2018-Feb-06 20:48N 33°40' E 034°03'410.2
2018-Feb-06 20:26N 33°40' E 034°08'510.4
2018-Feb-06 19:55N 33°39' E 034°14'410.4
2018-Feb-06 19:30N 33°39' E 034°19'510.5
2018-Feb-06 19:00N 33°38' E 034°25'510.7
2018-Feb-06 18:30N 33°38' E 034°32'510.5
2018-Feb-06 18:00N 33°37' E 034°38'510.4
2018-Feb-06 17:30N 33°36' E 034°44'5 9.4
2018-Feb-06 17:00N 33°36' E 034°50'5 8.5
2018-Feb-06 16:28N 33°35' E 034°55'611.4
2018-Feb-06 15:54N 33°34' E 035°03'  
2018-Feb-02 08:46N 34°39' E 033°06'1 0.1
2018-Feb-02 02:02N 34°40' E 033°05'0 0.5
2018-Feb-02 02:00N 34°40' E 033°05'38610.4
2018-Jan-31 13:00N 37°18' E 025°50'612.0
2018-Jan-31 12:30N 37°24' E 025°47'1011.5
2018-Jan-31 11:36N 37°34' E 025°43'111.5
2018-Jan-31 11:30N 37°35' E 025°43'611.3
2018-Jan-31 10:56N 37°41' E 025°40'511.0
2018-Jan-31 10:30N 37°46' E 025°38'12811.7
2018-Jan-30 23:34N 39°36' E 024°16'111.7
2018-Jan-30 23:28N 39°37' E 024°14'612.2
2018-Jan-30 23:00N 39°39' E 024°07'2612.0
2018-Jan-30 20:51N 39°46' E 023°35'  
Track history (hours):
 
Tides and Currents Weather Stations Pressure Air Temp Water Temp Dewpoint Dewpoint Depression Visibility Wind Speed Wind Dir Waves Ship Positions

3b Victory

Last reported at 2018-Feb-08 01:20 UTC. Time now 2018-Feb-24 02:22 UTC.
Position N 34°06' E 029°40'.
Warning: this ship's position is 16 days out of date.

Length 106 m; draft 5.2 m.

Type: Tanker. MMSI: 256120000.

Date/timePositionNaut miles runAvg speedWind from/ knotsBaromVisibWave heightAir tempDewpointWater temp
2018-Feb-08 01:20N 34°06' E 029°40'2 7.1
2018-Feb-08 01:00N 34°06' E 029°43'20 6.7
2018-Feb-07 22:01N 34°03' E 030°07'0 7.6
2018-Feb-07 22:00N 34°03' E 030°07'4 7.7
2018-Feb-07 21:31N 34°03' E 030°12'114 6.8
2018-Feb-07 04:46N 33°50' E 032°28'2 9.6
2018-Feb-07 04:30N 33°50' E 032°31'15 9.4
2018-Feb-07 02:56N 33°48' E 032°49'5 9.3
2018-Feb-07 02:25N 33°47' E 032°54'4 9.3
2018-Feb-07 02:00N 33°47' E 032°59'5 9.4
2018-Feb-07 01:30N 33°46' E 033°05'5 9.4
2018-Feb-07 01:00N 33°46' E 033°10'611.1
2018-Feb-07 00:30N 33°45' E 033°17'511.0
2018-Feb-07 00:00N 33°44' E 033°23'810.8
2018-Feb-06 23:16N 33°43' E 033°33'2 7.7
2018-Feb-06 23:00N 33°43' E 033°35'510.1
2018-Feb-06 22:29N 33°42' E 033°42'510.8
2018-Feb-06 22:00N 33°42' E 033°48'611.0
2018-Feb-06 21:29N 33°41' E 033°55'710.5
2018-Feb-06 20:48N 33°40' E 034°03'410.2
2018-Feb-06 20:26N 33°40' E 034°08'510.4
2018-Feb-06 19:55N 33°39' E 034°14'410.4
2018-Feb-06 19:30N 33°39' E 034°19'510.5
2018-Feb-06 19:00N 33°38' E 034°25'510.7
2018-Feb-06 18:30N 33°38' E 034°32'510.5
2018-Feb-06 18:00N 33°37' E 034°38'510.4
2018-Feb-06 17:30N 33°36' E 034°44'5 9.4
2018-Feb-06 17:00N 33°36' E 034°50'5 8.5
2018-Feb-06 16:28N 33°35' E 034°55'611.4
2018-Feb-06 15:54N 33°34' E 035°03'  
2018-Feb-02 08:46N 34°39' E 033°06'1 0.1
2018-Feb-02 02:02N 34°40' E 033°05'0 0.5
2018-Feb-02 02:00N 34°40' E 033°05'38610.4
2018-Jan-31 13:00N 37°18' E 025°50'612.0
2018-Jan-31 12:30N 37°24' E 025°47'1011.5
2018-Jan-31 11:36N 37°34' E 025°43'111.5
2018-Jan-31 11:30N 37°35' E 025°43'611.3
2018-Jan-31 10:56N 37°41' E 025°40'511.0
2018-Jan-31 10:30N 37°46' E 025°38'12811.7
2018-Jan-30 23:34N 39°36' E 024°16'111.7
2018-Jan-30 23:28N 39°37' E 024°14'612.2
2018-Jan-30 23:00N 39°39' E 024°07'2612.0
2018-Jan-30 20:51N 39°46' E 023°35'  

Dump ship's entire track history